createdAt,value
2018-12-23T00:00:27.492Z,82.70
2018-12-23T00:02:55.856Z,83.10
2018-12-23T00:05:24.238Z,83.10
2018-12-23T00:07:52.627Z,82.90
2018-12-23T00:10:21.043Z,83.30
2018-12-23T00:12:49.541Z,83.20
2018-12-23T00:15:17.909Z,82.00
2018-12-23T00:17:46.299Z,82.00
2018-12-23T00:20:14.687Z,82.10
2018-12-23T00:22:43.079Z,81.30
2018-12-23T00:25:17.753Z,80.80
2018-12-23T00:27:46.135Z,81.40
2018-12-23T00:30:14.480Z,81.50
2018-12-23T00:32:42.843Z,81.30
2018-12-23T00:35:11.202Z,80.80
2018-12-23T00:37:39.609Z,80.70
2018-12-23T00:40:07.965Z,81.40
2018-12-23T00:42:36.364Z,80.70
2018-12-23T00:45:05.123Z,81.10
2018-12-23T00:47:33.483Z,81.30
2018-12-23T00:50:01.964Z,81.30
2018-12-23T00:52:30.311Z,80.70
2018-12-23T00:54:58.707Z,81.50
2018-12-23T00:57:27.089Z,81.50
2018-12-23T00:59:55.473Z,82.20
2018-12-23T01:02:23.854Z,82.40
2018-12-23T01:04:52.231Z,82.40
2018-12-23T01:07:20.599Z,82.30
2018-12-23T01:09:49.029Z,82.60
2018-12-23T01:12:17.450Z,82.90
2018-12-23T01:14:45.824Z,82.20
2018-12-23T01:17:14.204Z,81.70
2018-12-23T01:19:42.612Z,81.40
2018-12-23T01:22:10.976Z,80.60
2018-12-23T01:24:39.487Z,81.00
2018-12-23T01:27:07.849Z,81.50
2018-12-23T01:29:36.279Z,80.60
2018-12-23T01:32:04.627Z,81.00
2018-12-23T01:34:37.018Z,81.20
2018-12-23T01:37:03.339Z,81.50
2018-12-23T01:39:31.735Z,81.50
2018-12-23T01:42:00.085Z,81.10
2018-12-23T01:44:28.468Z,81.40
2018-12-23T01:46:56.821Z,81.20
2018-12-23T01:49:25.224Z,81.00
2018-12-23T01:51:53.586Z,80.60
2018-12-23T01:54:22.073Z,80.60
2018-12-23T01:56:50.441Z,80.60
2018-12-23T01:59:18.831Z,80.60
2018-12-23T02:01:47.219Z,80.60
2018-12-23T02:04:15.576Z,80.60
2018-12-23T02:06:43.983Z,80.60
2018-12-23T02:09:12.363Z,80.60
2018-12-23T02:11:40.730Z,80.60
2018-12-23T02:14:09.110Z,80.60
2018-12-23T02:16:37.777Z,81.10
2018-12-23T02:19:06.207Z,81.00
2018-12-23T02:21:34.579Z,81.40
2018-12-23T02:24:02.944Z,81.40
2018-12-23T02:26:31.291Z,81.70
2018-12-23T02:28:59.672Z,82.00
2018-12-23T02:31:28.080Z,82.00
2018-12-23T02:33:56.506Z,82.10
2018-12-23T02:36:25.171Z,82.30
2018-12-23T02:38:53.620Z,82.50
2018-12-23T02:41:31.319Z,82.30
2018-12-23T02:43:52.560Z,82.20
2018-12-23T02:46:20.928Z,81.70
2018-12-23T02:48:49.316Z,81.40
2018-12-23T02:51:17.788Z,80.70
2018-12-23T02:53:46.119Z,81.00
2018-12-23T02:56:14.660Z,81.00
2018-12-23T02:58:43.043Z,81.10
2018-12-23T03:01:11.379Z,81.00
2018-12-23T03:03:39.778Z,81.30
2018-12-23T03:06:08.161Z,81.40
2018-12-23T03:08:36.519Z,81.20
2018-12-23T03:11:04.923Z,81.00
2018-12-23T03:13:33.359Z,80.80
2018-12-23T03:16:01.731Z,80.90
2018-12-23T03:18:30.121Z,81.00
2018-12-23T03:20:58.473Z,80.80
2018-12-23T03:23:26.901Z,80.70
2018-12-23T03:25:55.243Z,80.30
2018-12-23T03:28:23.622Z,80.30
2018-12-23T03:30:52.046Z,80.30
2018-12-23T03:33:20.420Z,80.30
2018-12-23T03:35:48.790Z,80.30
2018-12-23T03:38:17.132Z,80.30
2018-12-23T03:40:45.481Z,80.30
2018-12-23T03:43:13.823Z,80.30
2018-12-23T03:45:42.202Z,80.30
2018-12-23T03:48:10.576Z,80.30
2018-12-23T03:50:38.973Z,80.30
2018-12-23T03:53:07.379Z,80.30
2018-12-23T03:55:35.724Z,80.30
2018-12-23T03:58:04.076Z,80.30
2018-12-23T04:00:32.481Z,80.30
2018-12-23T04:03:00.824Z,80.30
2018-12-23T04:05:29.312Z,80.30
2018-12-23T04:07:57.666Z,80.30
2018-12-23T04:10:26.054Z,80.30
2018-12-23T04:12:54.409Z,80.30
2018-12-23T04:15:22.789Z,80.30
2018-12-23T04:17:51.130Z,80.30
2018-12-23T04:20:19.498Z,80.30
2018-12-23T04:22:47.876Z,80.30
2018-12-23T04:25:16.234Z,80.30
2018-12-23T04:27:44.606Z,80.30
2018-12-23T04:30:12.963Z,80.30
2018-12-23T04:32:41.325Z,80.30
2018-12-23T04:35:09.694Z,80.30
2018-12-23T04:37:38.052Z,80.30
2018-12-23T04:40:06.524Z,80.30
2018-12-23T04:42:34.879Z,80.30
2018-12-23T04:45:03.452Z,80.30
2018-12-23T04:47:31.918Z,80.30
2018-12-23T04:50:00.341Z,80.30
2018-12-23T04:52:28.703Z,80.20
2018-12-23T04:54:57.020Z,80.20
2018-12-23T04:57:25.368Z,80.20
2018-12-23T04:59:53.736Z,80.20
2018-12-23T05:02:22.113Z,80.30
2018-12-23T05:04:50.496Z,80.30
2018-12-23T05:07:18.967Z,80.30
2018-12-23T05:09:47.421Z,80.20
2018-12-23T05:12:15.903Z,79.60
2018-12-23T05:14:44.871Z,79.20
2018-12-23T05:17:13.602Z,78.90
2018-12-23T05:19:41.972Z,78.50
2018-12-23T05:22:10.348Z,78.10
2018-12-23T05:24:38.798Z,77.70
2018-12-23T05:27:07.130Z,77.60
2018-12-23T05:29:35.522Z,77.70
2018-12-23T05:32:04.012Z,77.70
2018-12-23T05:34:32.382Z,77.70
2018-12-23T05:37:00.745Z,77.80
2018-12-23T05:39:29.102Z,77.60
2018-12-23T05:41:57.479Z,77.50
2018-12-23T05:44:25.827Z,77.30
2018-12-23T05:47:00.875Z,77.10
2018-12-23T05:49:29.372Z,76.90
2018-12-23T05:51:57.769Z,76.80
2018-12-23T05:54:26.158Z,76.10
2018-12-23T05:56:54.531Z,75.50
2018-12-23T05:59:22.920Z,74.50
2018-12-23T06:01:51.259Z,74.40
2018-12-23T06:04:19.624Z,74.10
2018-12-23T06:06:48.010Z,74.10
2018-12-23T06:09:16.411Z,74.60
2018-12-23T06:11:44.803Z,73.00
2018-12-23T06:14:13.186Z,71.70
2018-12-23T06:16:41.559Z,72.10
2018-12-23T06:19:09.919Z,71.50
2018-12-23T06:21:38.267Z,71.30
2018-12-23T06:24:06.599Z,72.60
2018-12-23T06:26:35.083Z,72.60
2018-12-23T06:29:03.460Z,72.70
2018-12-23T06:31:31.775Z,72.90
2018-12-23T06:34:00.151Z,73.00
2018-12-23T06:36:28.499Z,73.10
2018-12-23T06:38:56.853Z,72.90
2018-12-23T06:41:25.196Z,69.90
2018-12-23T06:43:53.573Z,68.30
2018-12-23T06:46:21.954Z,64.00
2018-12-23T06:48:50.419Z,64.10
2018-12-23T06:51:18.821Z,64.00
2018-12-23T06:53:47.168Z,59.50
2018-12-23T06:56:15.602Z,1.00
2018-12-23T06:58:43.951Z,1.00
2018-12-23T07:01:12.337Z,1.00
2018-12-23T07:03:40.690Z,1.00
2018-12-23T07:06:09.058Z,1.00
2018-12-23T07:08:37.430Z,1.00
2018-12-23T07:11:05.814Z,1.00
2018-12-23T07:13:34.183Z,1.00
2018-12-23T07:16:02.552Z,1.00
2018-12-23T07:18:30.916Z,1.00
2018-12-23T07:20:59.268Z,1.00
2018-12-23T07:23:27.654Z,1.00
2018-12-23T07:25:56.131Z,1.00
2018-12-23T07:28:24.502Z,1.00
2018-12-23T07:30:52.881Z,1.00
2018-12-23T07:33:21.224Z,1.00
2018-12-23T07:35:49.606Z,1.00
2018-12-23T07:38:17.963Z,1.00
2018-12-23T07:40:46.321Z,1.00
2018-12-23T07:43:14.682Z,1.00
2018-12-23T07:45:43.032Z,1.00
2018-12-23T07:48:11.426Z,1.00
2018-12-23T07:50:39.789Z,1.00
2018-12-23T07:53:08.145Z,1.00
2018-12-23T07:55:36.476Z,1.00
2018-12-23T07:58:04.854Z,1.00
2018-12-23T08:00:33.219Z,1.00
2018-12-23T08:03:01.644Z,1.00
2018-12-23T08:05:30.040Z,1.00
2018-12-23T08:07:58.410Z,1.00
2018-12-23T08:10:26.838Z,1.00
2018-12-23T08:12:55.214Z,1.00
2018-12-23T08:15:23.597Z,1.00
2018-12-23T08:17:51.983Z,1.00
2018-12-23T08:20:20.341Z,1.00
2018-12-23T08:22:48.723Z,1.00
2018-12-23T08:25:17.085Z,1.00
2018-12-23T08:27:45.462Z,1.00
2018-12-23T08:30:13.831Z,1.00
2018-12-23T08:32:42.217Z,1.00
2018-12-23T08:35:10.549Z,1.00
2018-12-23T08:37:44.582Z,1.00
2018-12-23T08:40:09.376Z,1.00
2018-12-23T08:42:37.717Z,1.00
2018-12-23T08:45:06.089Z,1.00
2018-12-23T08:47:34.454Z,1.00
2018-12-23T08:50:02.908Z,1.00
2018-12-23T08:52:31.312Z,1.00
2018-12-23T08:54:59.629Z,1.00
2018-12-23T08:57:28.118Z,1.00
2018-12-23T08:59:56.510Z,1.00
2018-12-23T09:02:24.875Z,1.00
2018-12-23T09:04:53.241Z,1.00
2018-12-23T09:07:21.676Z,1.00
2018-12-23T09:09:50.109Z,1.00
2018-12-23T09:12:18.479Z,1.00
2018-12-23T09:14:46.867Z,1.00
2018-12-23T09:17:15.323Z,1.00
2018-12-23T09:19:43.697Z,1.00
2018-12-23T09:22:12.037Z,1.00
2018-12-23T09:24:40.347Z,1.00
2018-12-23T09:27:08.730Z,1.00
2018-12-23T09:29:37.111Z,45.70
2018-12-23T09:32:05.474Z,74.70
2018-12-23T09:34:33.849Z,76.70
2018-12-23T09:37:02.317Z,78.90
2018-12-23T09:39:30.901Z,77.50
2018-12-23T09:41:59.836Z,78.70
2018-12-23T09:44:28.306Z,79.50
2018-12-23T09:46:56.659Z,79.20
2018-12-23T09:49:25.047Z,78.10
2018-12-23T09:51:53.416Z,78.90
2018-12-23T09:54:21.807Z,78.30
2018-12-23T09:56:50.210Z,79.00
2018-12-23T09:59:18.605Z,79.70
2018-12-23T10:01:47.124Z,78.80
2018-12-23T10:04:15.525Z,79.60
2018-12-23T10:06:43.931Z,79.80
2018-12-23T10:09:12.896Z,78.00
2018-12-23T10:11:41.293Z,79.10
2018-12-23T10:14:09.746Z,80.00
2018-12-23T10:16:38.093Z,80.40
2018-12-23T10:19:06.504Z,80.50
2018-12-23T10:21:34.837Z,79.60
2018-12-23T10:24:03.282Z,80.90
2018-12-23T10:26:31.640Z,80.90
2018-12-23T10:28:59.997Z,80.90
2018-12-23T10:31:28.339Z,80.90
2018-12-23T10:33:56.707Z,80.80
2018-12-23T10:36:25.066Z,81.50
2018-12-23T10:38:53.424Z,82.60
2018-12-23T10:41:21.760Z,82.20
2018-12-23T10:43:50.179Z,81.80
2018-12-23T10:46:18.532Z,81.60
2018-12-23T10:48:46.897Z,82.40
2018-12-23T10:51:15.302Z,82.90
2018-12-23T10:53:43.665Z,83.20
2018-12-23T10:56:12.218Z,83.20
2018-12-23T10:58:40.663Z,83.70
2018-12-23T11:01:09.095Z,83.90
2018-12-23T11:03:37.537Z,83.50
2018-12-23T11:06:05.931Z,83.50
2018-12-23T11:08:34.316Z,84.20
2018-12-23T11:11:02.702Z,84.10
2018-12-23T11:13:31.119Z,83.90
2018-12-23T11:15:59.534Z,83.10
2018-12-23T11:18:27.948Z,83.30
2018-12-23T11:21:33.449Z,83.00
2018-12-23T11:24:03.205Z,81.80
2018-12-23T11:26:32.867Z,81.60
2018-12-23T11:29:02.512Z,80.80
2018-12-23T11:31:32.099Z,80.60
2018-12-23T11:34:01.677Z,81.30
2018-12-23T11:36:31.284Z,80.70
2018-12-23T11:39:00.858Z,80.60
2018-12-23T11:41:30.461Z,80.60
2018-12-23T11:44:00.203Z,81.10
2018-12-23T11:46:29.816Z,80.60
2018-12-23T11:48:59.446Z,81.60
2018-12-23T11:51:29.019Z,80.80
2018-12-23T11:53:58.707Z,80.20
2018-12-23T11:56:28.256Z,79.70
2018-12-23T11:58:57.935Z,78.70
2018-12-23T12:01:27.761Z,77.90
2018-12-23T12:03:57.473Z,73.60
2018-12-23T12:06:27.050Z,67.40
2018-12-23T12:08:56.700Z,70.20
2018-12-23T12:11:26.281Z,66.60
2018-12-23T12:13:55.868Z,1.00
2018-12-23T12:16:25.743Z,1.00
2018-12-23T12:18:55.324Z,1.00
2018-12-23T12:21:25.107Z,1.00
2018-12-23T12:23:54.674Z,1.00
2018-12-23T12:26:24.252Z,1.00
2018-12-23T12:28:53.878Z,1.00
2018-12-23T12:31:23.577Z,1.00
2018-12-23T12:33:53.174Z,1.00
2018-12-23T12:36:22.781Z,1.00
2018-12-23T12:38:52.544Z,1.00
2018-12-23T12:41:22.161Z,1.00
2018-12-23T12:43:51.888Z,1.00
2018-12-23T12:46:21.494Z,1.00
2018-12-23T12:48:51.149Z,1.00
2018-12-23T12:51:20.747Z,1.00
2018-12-23T12:53:50.352Z,1.00
2018-12-23T12:56:20.027Z,1.00
2018-12-23T12:58:49.614Z,1.00
2018-12-23T13:01:19.476Z,1.00
2018-12-23T13:03:49.180Z,1.00
2018-12-23T13:06:18.963Z,1.00
2018-12-23T13:08:48.710Z,1.00
2018-12-23T13:11:18.633Z,1.00
2018-12-23T13:13:48.254Z,1.00
2018-12-23T13:16:17.814Z,1.00
2018-12-23T13:18:47.437Z,1.00
2018-12-23T13:21:16.995Z,1.00
2018-12-23T13:23:46.677Z,1.00
2018-12-23T13:26:16.259Z,1.00
2018-12-23T13:28:45.833Z,1.00
2018-12-23T13:31:15.519Z,1.00
2018-12-23T13:33:45.394Z,1.00
2018-12-23T13:36:15.110Z,1.00
2018-12-23T13:38:44.688Z,1.00
2018-12-23T13:41:42.761Z,1.00
2018-12-23T13:44:44.268Z,1.00
2018-12-23T13:47:39.262Z,1.00
2018-12-23T13:50:57.702Z,1.00
2018-12-23T13:54:16.614Z,1.00
2018-12-23T13:57:18.436Z,1.00
2018-12-23T14:00:33.875Z,1.00
2018-12-23T14:03:46.061Z,1.00
2018-12-23T14:07:00.395Z,1.00
2018-12-23T14:10:03.991Z,1.00
2018-12-23T14:12:33.585Z,1.00
2018-12-23T14:15:03.319Z,1.00
2018-12-23T14:17:32.897Z,1.00
2018-12-23T14:20:02.577Z,1.00
2018-12-23T14:22:32.295Z,1.00
2018-12-23T14:25:02.091Z,1.00
2018-12-23T14:27:31.817Z,1.00
2018-12-23T14:30:01.502Z,1.00
2018-12-23T14:32:31.233Z,1.00
2018-12-23T14:35:01.058Z,1.00
2018-12-23T14:37:30.623Z,1.00
2018-12-23T14:40:00.209Z,1.00
2018-12-23T14:42:29.789Z,1.00
2018-12-23T14:44:59.503Z,3.80
2018-12-23T14:47:29.423Z,91.10
2018-12-23T14:49:59.043Z,91.10
2018-12-23T14:52:33.012Z,91.40
2018-12-23T14:55:02.671Z,91.50
2018-12-23T14:57:32.296Z,91.50
2018-12-23T15:00:01.972Z,91.60
2018-12-23T15:02:31.544Z,91.60
2018-12-23T15:05:01.212Z,91.60
2018-12-23T15:07:30.774Z,91.70
2018-12-23T15:10:00.415Z,91.70
2018-12-23T15:12:29.973Z,91.70
2018-12-23T15:14:59.753Z,91.70
2018-12-23T15:17:29.344Z,91.80
2018-12-23T15:19:58.927Z,91.80
2018-12-23T15:22:28.542Z,91.80
2018-12-23T15:24:58.228Z,91.80
2018-12-23T15:27:27.877Z,91.90
2018-12-23T15:29:57.459Z,91.90
2018-12-23T15:32:27.083Z,91.90
2018-12-23T15:34:56.789Z,91.90
2018-12-23T15:37:26.516Z,91.90
2018-12-23T15:39:56.087Z,91.90
2018-12-23T15:42:25.884Z,91.90
2018-12-23T15:44:55.623Z,91.50
2018-12-23T15:47:25.292Z,91.40
2018-12-23T15:49:54.891Z,91.40
2018-12-23T15:52:24.483Z,91.70
2018-12-23T15:54:54.089Z,91.50
2018-12-23T15:57:23.711Z,91.50
2018-12-23T15:59:53.340Z,91.50
2018-12-23T16:02:22.950Z,91.50
2018-12-23T16:04:54.617Z,91.40
2018-12-23T16:07:24.267Z,91.40
2018-12-23T16:09:53.960Z,91.50
2018-12-23T16:12:23.518Z,91.50
2018-12-23T16:14:53.402Z,91.50
2018-12-23T16:17:22.973Z,91.50
2018-12-23T16:19:52.606Z,91.50
2018-12-23T16:22:24.941Z,91.50
2018-12-23T16:24:54.905Z,91.50
2018-12-23T16:27:24.439Z,91.50
2018-12-23T16:29:53.995Z,91.30
2018-12-23T16:32:23.603Z,91.30
2018-12-23T16:34:53.141Z,91.20
2018-12-23T16:37:22.734Z,91.30
2018-12-23T16:39:59.416Z,91.00
2018-12-23T16:42:23.681Z,90.90
2018-12-23T16:44:53.583Z,91.00
2018-12-23T16:47:23.151Z,90.80
2018-12-23T16:49:52.711Z,90.80
2018-12-23T16:52:22.404Z,90.80
2018-12-23T16:54:51.964Z,90.90
2018-12-23T16:57:21.546Z,91.00
2018-12-23T16:59:51.154Z,91.10
2018-12-23T17:02:20.854Z,91.20
2018-12-23T17:04:50.453Z,90.90
2018-12-23T17:07:19.996Z,91.10
2018-12-23T17:09:49.595Z,91.10
2018-12-23T17:12:19.177Z,91.10
2018-12-23T17:14:48.803Z,90.60
2018-12-23T17:17:18.341Z,90.60
2018-12-23T17:19:47.941Z,90.70
2018-12-23T17:22:17.517Z,90.70
2018-12-23T17:24:47.156Z,90.60
2018-12-23T17:27:16.912Z,90.60
2018-12-23T17:29:46.506Z,90.60
2018-12-23T17:32:16.052Z,90.60
2018-12-23T17:34:45.598Z,90.40
2018-12-23T17:37:15.194Z,90.50
2018-12-23T17:39:44.804Z,90.70
2018-12-23T17:42:14.415Z,90.70
2018-12-23T17:44:44.016Z,90.40
2018-12-23T17:47:13.651Z,90.60
2018-12-23T17:49:43.218Z,90.60
2018-12-23T17:52:12.933Z,90.10
2018-12-23T17:54:42.484Z,90.10
2018-12-23T17:57:12.395Z,90.20
2018-12-23T17:59:41.936Z,90.30
2018-12-23T18:02:11.701Z,90.20
2018-12-23T18:04:41.626Z,90.00
2018-12-23T18:07:11.190Z,90.10
2018-12-23T18:09:40.954Z,89.50
2018-12-23T18:12:10.612Z,89.60
2018-12-23T18:14:40.295Z,89.70
2018-12-23T18:17:10.042Z,90.00
2018-12-23T18:19:39.734Z,90.10
2018-12-23T18:22:09.298Z,90.20
2018-12-23T18:24:39.051Z,90.30
2018-12-23T18:27:08.639Z,90.30
2018-12-23T18:29:38.254Z,90.30
2018-12-23T18:32:07.841Z,90.50
2018-12-23T18:34:37.479Z,90.30
2018-12-23T18:37:07.050Z,90.20
2018-12-23T18:39:36.801Z,90.10
2018-12-23T18:42:06.418Z,90.10
2018-12-23T18:44:36.299Z,90.20
2018-12-23T18:47:06.237Z,90.30
2018-12-23T18:49:35.843Z,90.30
2018-12-23T18:52:05.602Z,90.30
2018-12-23T18:54:35.169Z,90.20
2018-12-23T18:57:08.270Z,90.10
2018-12-23T18:59:42.537Z,88.80
2018-12-23T19:02:15.119Z,88.60
2018-12-23T19:04:44.679Z,88.80
2018-12-23T19:07:14.335Z,88.70
2018-12-23T19:10:18.494Z,89.00
2018-12-23T19:13:27.103Z,88.90
2018-12-23T19:16:33.934Z,89.20
2018-12-23T19:19:29.586Z,89.30
2018-12-23T19:22:51.104Z,89.40
2018-12-23T19:25:46.674Z,89.60
2018-12-23T19:28:53.093Z,89.40
2018-12-23T19:32:18.456Z,89.60
2018-12-23T19:35:23.603Z,90.10
2018-12-23T19:38:29.091Z,90.20
2018-12-23T19:41:43.994Z,90.00
2018-12-23T19:44:48.376Z,89.90
2018-12-23T19:47:54.653Z,89.80
2018-12-23T19:50:53.224Z,89.40
2018-12-23T19:53:40.427Z,89.20
2018-12-23T19:56:55.500Z,89.20
2018-12-23T20:00:11.838Z,89.00
2018-12-23T20:03:06.135Z,89.20
2018-12-23T20:06:11.235Z,88.60
2018-12-23T20:09:15.485Z,88.60
2018-12-23T20:12:29.169Z,87.90
2018-12-23T20:15:32.141Z,88.00
2018-12-23T20:19:06.956Z,86.90
2018-12-23T20:22:14.595Z,86.80
2018-12-23T20:25:23.770Z,87.70
2018-12-23T20:28:16.464Z,88.30
2018-12-23T20:31:21.181Z,88.60
2018-12-23T20:34:40.652Z,89.00
2018-12-23T20:37:49.193Z,89.50
2018-12-23T20:40:54.571Z,88.60
2018-12-23T20:44:09.961Z,88.70
2018-12-23T20:47:16.195Z,88.70
2018-12-23T20:50:30.162Z,88.20
2018-12-23T20:53:36.233Z,89.40
2018-12-23T20:56:34.700Z,89.00
2018-12-23T20:59:37.241Z,90.10
2018-12-23T21:02:52.463Z,89.30
2018-12-23T21:05:52.475Z,89.70
2018-12-23T21:09:11.828Z,89.70
2018-12-23T21:12:49.725Z,90.10
2018-12-23T21:15:54.756Z,90.30
2018-12-23T21:18:54.812Z,90.70
2018-12-23T21:21:45.185Z,90.30
2018-12-23T21:24:37.430Z,90.00
2018-12-23T21:27:49.811Z,90.40
2018-12-23T21:31:04.124Z,90.50
2018-12-23T21:34:19.746Z,90.50
2018-12-23T21:37:41.349Z,90.60
2018-12-23T21:40:55.095Z,90.90
2018-12-23T21:44:14.741Z,90.80
2018-12-23T21:47:17.670Z,90.70
2018-12-23T21:50:27.373Z,90.20
2018-12-23T21:53:43.901Z,90.50
2018-12-23T21:56:50.168Z,90.30
2018-12-23T21:59:40.430Z,90.40
2018-12-23T22:02:49.980Z,90.50
2018-12-23T22:05:59.445Z,90.50
2018-12-23T22:08:59.340Z,90.20
2018-12-23T22:11:39.202Z,89.80
2018-12-23T22:14:08.787Z,90.00
2018-12-23T22:16:38.376Z,90.40
2018-12-23T22:19:07.945Z,90.30
2018-12-23T22:21:37.490Z,89.60
2018-12-23T22:24:07.068Z,89.00
2018-12-23T22:26:36.706Z,88.90
2018-12-23T22:29:06.521Z,89.40
2018-12-23T22:31:36.089Z,89.30
2018-12-23T22:34:05.816Z,89.80
2018-12-23T22:36:35.400Z,88.20
2018-12-23T22:39:07.080Z,89.50
2018-12-23T22:41:41.243Z,89.10
2018-12-23T22:44:08.176Z,89.20
2018-12-23T22:46:37.795Z,90.00
2018-12-23T22:49:07.372Z,89.90
2018-12-23T22:51:36.982Z,90.20
2018-12-23T22:54:06.544Z,90.00
2018-12-23T22:56:36.254Z,89.80
2018-12-23T22:59:05.966Z,89.70
2018-12-23T23:01:39.073Z,89.40
2018-12-23T23:04:07.049Z,88.40
2018-12-23T23:06:36.605Z,87.70
2018-12-23T23:09:08.648Z,88.40
2018-12-23T23:11:38.252Z,89.00
2018-12-23T23:14:07.811Z,88.20
2018-12-23T23:16:37.432Z,88.30
2018-12-23T23:19:07.103Z,87.50
2018-12-23T23:21:36.708Z,87.50
2018-12-23T23:24:06.311Z,89.00
2018-12-23T23:26:35.898Z,87.70
2018-12-23T23:29:05.494Z,88.30
2018-12-23T23:31:35.163Z,88.40
2018-12-23T23:34:04.778Z,88.40
2018-12-23T23:36:34.329Z,87.90
2018-12-23T23:39:04.759Z,88.50
2018-12-23T23:41:34.358Z,88.70
2018-12-23T23:44:04.026Z,85.60
2018-12-23T23:46:33.877Z,85.50
2018-12-23T23:49:03.492Z,85.90
2018-12-23T23:51:33.150Z,86.50
2018-12-23T23:54:03.102Z,87.60
2018-12-23T23:56:32.863Z,87.10
2018-12-23T23:59:02.648Z,87.20
